Time;durP1;ratioP1;P1;durP2;ratioP2;P2;SDS_P1;SDS_P2;PMS_P1;PMS_P2;Temp;Humidity;BMP_temperature;BMP_pressure;BME280_temperature;BME280_humidity;BME280_pressure;Samples;Min_cycle;Max_cycle;Signal;HPM_P1;HPM_P2
2022/11/30 00:00:16;;;;;;;44.13;18.37;;;;;;;-141.97;100.00;47932.34;4994566;28;20205;-93
2022/11/30 00:02:42;;;;;;;40.73;18.10;;;;;;;-141.97;100.00;47865.06;4976904;28;20179;-92
2022/11/30 00:05:08;;;;;;;37.30;15.67;;;;;;;-141.97;100.00;47817.00;4992563;28;20178;-91
2022/11/30 00:07:34;;;;;;;35.07;14.70;;;;;;;-141.97;100.00;47711.28;4994509;28;20257;-91
2022/11/30 00:09:59;;;;;;;37.97;14.73;;;;;;;-141.97;100.00;47732.44;4977727;28;20628;-90
2022/11/30 00:12:24;;;;;;;39.97;15.50;;;;;;;-141.97;100.00;47745.88;4978320;28;20311;-91
2022/11/30 00:14:50;;;;;;;35.37;14.90;;;;;;;-141.97;100.00;47801.63;4982547;28;20198;-90
2022/11/30 00:17:16;;;;;;;39.53;15.50;;;;;;;-141.97;100.00;47907.34;4980421;28;20619;-91
2022/11/30 00:19:41;;;;;;;37.67;15.17;;;;;;;-141.97;100.00;47911.19;4993968;28;20168;-90
2022/11/30 00:22:07;;;;;;;36.27;15.33;;;;;;;-141.97;100.00;47647.84;4977777;28;20194;-91
2022/11/30 00:24:32;;;;;;;42.93;16.10;;;;;;;-141.97;100.00;47793.94;4997639;28;20160;-90
2022/11/30 00:26:58;;;;;;;46.30;16.50;;;;;;;-141.97;100.00;47895.81;5010570;28;20702;-90
2022/11/30 00:29:23;;;;;;;39.77;15.93;;;;;;;-141.97;100.00;47834.31;5003946;28;20203;-90
2022/11/30 00:31:49;;;;;;;39.00;15.77;;;;;;;-141.97;100.00;47888.13;4978752;28;20187;-91
2022/11/30 00:34:14;;;;;;;39.70;14.70;;;;;;;-141.97;100.00;47718.97;4995688;28;20198;-91
2022/11/30 00:36:40;;;;;;;38.23;14.93;;;;;;;-141.97;100.00;47884.28;4994745;28;20647;-90
2022/11/30 00:39:05;;;;;;;37.50;14.50;;;;;;;-141.97;100.00;47730.50;4977431;28;20167;-91
2022/11/30 00:41:31;;;;;;;38.87;14.90;;;;;;;-141.97;100.00;47703.59;4977465;28;20190;-91
2022/11/30 00:43:56;;;;;;;38.27;15.70;;;;;;;-141.97;100.00;47703.59;4977584;28;20560;-91
2022/11/30 00:46:21;;;;;;;42.37;15.67;;;;;;;-141.97;100.00;47740.13;4987551;28;20179;-91
2022/11/30 00:48:47;;;;;;;43.37;16.80;;;;;;;-141.97;100.00;47840.06;4994313;28;20219;-92
2022/11/30 00:51:13;;;;;;;39.70;15.67;;;;;;;-141.97;100.00;47828.53;4994506;28;20167;-92
2022/11/30 00:53:39;;;;;;;39.27;14.67;;;;;;;-141.97;100.00;47855.44;4978340;28;20199;-91
2022/11/30 00:56:05;;;;;;;40.53;15.17;;;;;;;-141.97;100.00;47888.13;4995990;28;20250;-91
2022/11/30 00:58:31;;;;;;;40.07;14.90;;;;;;;-141.97;100.00;47842.00;4993616;28;20173;-91
2022/11/30 01:00:57;;;;;;;39.43;16.07;;;;;;;-141.97;100.00;47838.16;4976997;28;20278;-91
2022/11/30 01:03:22;;;;;;;46.33;16.23;;;;;;;-141.97;100.00;47793.94;4993981;28;20557;-90
2022/11/30 01:05:47;;;;;;;37.47;14.57;;;;;;;-141.97;100.00;47865.06;4977046;28;20321;-91
2022/11/30 01:08:13;;;;;;;43.40;15.63;;;;;;;-141.97;100.00;47818.94;4993191;28;20175;-91
2022/11/30 01:10:41;;;;;;;43.57;15.30;;;;;;;-141.97;100.00;47868.91;4993579;28;20602;-90
2022/11/30 01:13:07;;;;;;;39.43;14.13;;;;;;;-141.97;100.00;47934.25;4992802;28;20233;-91
2022/11/30 01:15:42;;;;;;;45.63;15.60;;;;;;;-141.97;100.00;47865.06;4976080;28;20419;-90
2022/11/30 01:18:08;;;;;;;42.10;15.53;;;;;;;-141.97;100.00;47916.97;4992653;28;20432;-91
2022/11/30 01:20:34;;;;;;;44.80;16.47;;;;;;;-141.97;100.00;47845.84;4992525;28;20171;-91
2022/11/30 01:22:59;;;;;;;39.80;15.00;;;;;;;-141.97;100.00;47911.19;4993302;28;20445;-91
2022/11/30 01:25:25;;;;;;;38.10;14.40;;;;;;;-141.97;100.00;47768.94;4976056;28;20167;-92
2022/11/30 01:27:51;;;;;;;39.40;15.17;;;;;;;-141.97;100.00;47699.75;4976225;28;20195;-91
2022/11/30 01:30:17;;;;;;;35.43;14.27;;;;;;;-141.97;100.00;47788.19;4992860;28;20671;-91
2022/11/30 01:32:43;;;;;;;35.33;14.43;;;;;;;-141.97;100.00;47820.84;4976188;28;20557;-92
2022/11/30 01:35:09;;;;;;;33.40;14.20;;;;;;;-141.97;100.00;47818.94;4978580;28;20167;-91
2022/11/30 01:37:35;;;;;;;36.20;13.83;;;;;;;-141.97;100.00;47903.50;4994743;28;20174;-91
2022/11/30 01:40:00;;;;;;;37.33;13.90;;;;;;;-141.97;100.00;47863.13;4977907;28;20565;-91
2022/11/30 01:42:26;;;;;;;35.03;13.40;;;;;;;-141.97;100.00;47682.47;4978603;28;20174;-92
2022/11/30 01:44:54;;;;;;;46.83;18.23;;;;;;;-141.97;100.00;47861.22;4978876;28;20175;-91
2022/11/30 01:47:26;;;;;;;44.10;16.70;;;;;;;-141.97;100.00;47865.06;4978679;28;20524;-91
2022/11/30 01:49:59;;;;;;;52.60;19.80;;;;;;;-141.97;100.00;47803.56;4978110;28;20278;-92
2022/11/30 01:52:31;;;;;;;43.60;17.73;;;;;;;-141.97;100.00;47745.88;4993320;28;20177;-92
2022/11/30 01:55:11;;;;;;;50.33;19.03;;;;;;;-141.97;100.00;47865.06;4994079;28;20187;-91
2022/11/30 01:57:47;;;;;;;47.23;18.60;;;;;;;-141.97;100.00;47680.53;4977547;28;20619;-91
2022/11/30 02:00:14;;;;;;;44.33;17.23;;;;;;;-141.97;100.00;47759.34;4993805;28;20570;-91
2022/11/30 02:02:50;;;;;;;45.47;17.00;;;;;;;-141.97;100.00;47845.84;4977848;28;20632;-92
2022/11/30 02:05:17;;;;;;;44.77;18.03;;;;;;;-141.97;100.00;47895.81;4982337;28;20173;-95
2022/11/30 02:07:42;;;;;;;44.37;17.87;;;;;;;-141.97;100.00;47717.06;4994160;28;20171;-92
2022/11/30 02:10:16;;;;;;;41.60;16.40;;;;;;;-141.97;100.00;47926.56;4977280;28;20670;-91
2022/11/30 02:13:10;;;;;;;45.95;17.35;;;;;;;-141.97;100.00;47820.84;4994728;28;20228;-92
2022/11/30 02:15:55;;;;;;;43.50;17.30;;;;;;;-141.97;100.00;47861.22;4983706;28;20179;-92
2022/11/30 02:18:45;;;;;;;43.67;17.23;;;;;;;-141.97;100.00;47903.50;4991894;28;20171;-92
2022/11/30 02:21:35;;;;;;;46.60;17.83;;;;;;;-141.97;100.00;47872.75;5002844;28;20163;-91
2022/11/30 02:24:07;;;;;;;51.37;21.23;;;;;;;-141.97;100.00;47866.97;4983304;28;20214;-91
2022/11/30 02:27:07;;;;;;;139.73;54.03;;;;;;;-141.97;100.00;47870.81;4984281;28;20215;-91
2022/11/30 02:29:40;;;;;;;87.80;36.23;;;;;;;-141.97;100.00;47761.25;4987218;28;20183;-92
2022/11/30 02:32:12;;;;;;;60.37;25.97;;;;;;;-141.97;100.00;47803.56;4996441;28;20170;-89
2022/11/30 02:34:40;;;;;;;50.67;20.47;;;;;;;-141.97;100.00;47676.69;4992721;28;20298;-90
2022/11/30 02:37:08;;;;;;;43.10;17.97;;;;;;;-141.97;100.00;47753.56;4975561;28;20210;-89
2022/11/30 02:39:34;;;;;;;45.33;18.10;;;;;;;-141.97;100.00;47830.47;4992185;28;20737;-90
2022/11/30 02:41:59;;;;;;;42.27;17.57;;;;;;;-141.97;100.00;47940.03;4976443;28;20179;-90
2022/11/30 02:44:26;;;;;;;42.53;16.87;;;;;;;-141.97;100.00;47874.69;4991267;28;20266;-90
2022/11/30 02:46:52;;;;;;;38.80;16.03;;;;;;;-141.97;100.00;47826.63;4992378;28;20221;-90
2022/11/30 02:49:50;;;;;;;41.10;16.03;;;;;;;-141.97;100.00;47845.84;4976039;28;20235;-90
2022/11/30 02:52:18;;;;;;;37.97;15.53;;;;;;;-141.97;100.00;47890.06;4936638;29;20208;-90
2022/11/30 02:54:45;;;;;;;34.00;14.50;;;;;;;-141.97;100.00;47843.91;4952863;29;20221;-90
2022/11/30 02:57:10;;;;;;;35.77;14.00;;;;;;;-141.97;100.00;47755.50;4938845;29;20193;-90
2022/11/30 02:59:36;;;;;;;38.60;15.20;;;;;;;-141.97;100.00;47882.38;4953328;29;20268;-90
2022/11/30 03:02:01;;;;;;;35.97;14.13;;;;;;;-141.97;100.00;47745.88;4937441;29;20188;-90
2022/11/30 03:04:26;;;;;;;38.07;15.87;;;;;;;-141.97;100.00;47891.97;4937479;29;20208;-90
2022/11/30 03:06:52;;;;;;;40.60;17.00;;;;;;;-141.97;100.00;47851.59;4936788;29;20175;-90
2022/11/30 03:09:17;;;;;;;49.77;20.17;;;;;;;-141.97;100.00;47695.91;4953615;29;20203;-90
2022/11/30 03:11:43;;;;;;;46.10;19.20;;;;;;;-141.97;100.00;47718.97;4936845;29;20180;-90
2022/11/30 03:14:08;;;;;;;43.37;18.57;;;;;;;-141.97;100.00;47888.13;4937090;29;20200;-90
2022/11/30 03:16:35;;;;;;;51.20;21.50;;;;;;;-141.97;100.00;47907.34;4951983;29;20200;-90
2022/11/30 03:19:00;;;;;;;51.97;23.97;;;;;;;-141.97;100.00;47659.38;4967230;28;20168;-92
2022/11/30 03:21:27;;;;;;;48.60;20.60;;;;;;;-141.97;100.00;47888.13;5081586;23;20239;-90
2022/11/30 03:23:53;;;;;;;44.97;18.70;;;;;;;-141.97;100.00;47897.75;4994788;28;20179;-90
2022/11/30 03:26:18;;;;;;;43.67;18.67;;;;;;;-141.97;100.00;47918.88;4996115;28;20202;-91
2022/11/30 03:28:43;;;;;;;62.33;27.80;;;;;;;-141.97;100.00;47749.72;4995897;28;20187;-90
2022/11/30 03:31:13;;;;;;;78.47;34.23;;;;;;;-141.97;100.00;47820.84;4997323;28;20176;-90
2022/11/30 03:33:41;;;;;;;65.87;29.30;;;;;;;-141.97;100.00;47797.78;4994272;28;20290;-90
2022/11/30 03:36:09;;;;;;;65.43;30.53;;;;;;;-141.97;100.00;47707.44;4994350;28;20171;-89
2022/11/30 03:38:36;;;;;;;55.43;24.50;;;;;;;-141.97;100.00;47682.47;4994279;28;20238;-90
2022/11/30 03:41:06;;;;;;;49.03;21.37;;;;;;;-141.97;100.00;47817.00;4978354;28;20203;-91
2022/11/30 03:43:31;;;;;;;59.60;24.73;;;;;;;-141.97;100.00;47717.06;4979169;28;20655;-91
2022/11/30 03:45:57;;;;;;;47.63;21.30;;;;;;;-141.97;100.00;47772.78;4979530;28;20180;-91
2022/11/30 03:48:24;;;;;;;73.30;29.90;;;;;;;-141.97;100.00;47845.84;4995127;28;20175;-91
2022/11/30 03:50:50;;;;;;;68.13;27.00;;;;;;;-141.97;100.00;47684.38;4995167;28;20175;-91
2022/11/30 03:53:17;;;;;;;71.50;29.53;;;;;;;-141.97;100.00;47761.25;4993568;28;20203;-90
2022/11/30 03:55:43;;;;;;;38.60;17.50;;;;;;;-141.97;100.00;47922.72;4978951;28;20652;-90
2022/11/30 03:58:08;;;;;;;42.00;18.73;;;;;;;-141.97;100.00;47886.22;4996754;28;20168;-90
2022/11/30 04:00:34;;;;;;;37.80;17.83;;;;;;;-141.97;100.00;47811.25;4994358;28;20207;-91
2022/11/30 04:02:59;;;;;;;41.73;18.83;;;;;;;-141.97;100.00;47747.81;4994301;28;20175;-91
2022/11/30 04:05:25;;;;;;;50.57;21.90;;;;;;;-141.97;100.00;47805.47;4994656;28;20203;-90
2022/11/30 04:07:50;;;;;;;45.47;20.70;;;;;;;-141.97;100.00;47907.34;4980417;28;20221;-90
2022/11/30 04:10:15;;;;;;;39.87;18.83;;;;;;;-141.97;100.00;47778.56;4993824;28;20167;-89
2022/11/30 04:12:41;;;;;;;47.07;20.40;;;;;;;-141.97;100.00;47720.91;4977997;28;20252;-90
2022/11/30 04:15:07;;;;;;;41.60;18.93;;;;;;;-141.97;100.00;47907.34;4978169;28;20191;-90
2022/11/30 04:17:32;;;;;;;65.03;23.70;;;;;;;-141.97;100.00;47738.19;4994023;28;20183;-90
2022/11/30 04:19:58;;;;;;;42.93;17.43;;;;;;;-141.97;100.00;47943.88;4995600;28;20677;-92
2022/11/30 04:22:23;;;;;;;51.57;21.40;;;;;;;-141.97;100.00;47945.81;5005159;28;20242;-90
2022/11/30 04:24:49;;;;;;;48.90;20.83;;;;;;;-141.97;100.00;47845.84;5001246;28;20167;-90
2022/11/30 04:27:15;;;;;;;43.43;18.43;;;;;;;-141.97;100.00;47876.59;5017687;28;20175;-90
2022/11/30 04:29:40;;;;;;;51.23;21.83;;;;;;;-141.97;100.00;47736.28;4990439;28;20170;-88
2022/11/30 04:32:05;;;;;;;54.93;22.60;;;;;;;-141.97;100.00;47901.59;5013390;28;20172;-90
2022/11/30 04:34:31;;;;;;;40.63;19.17;;;;;;;-141.97;100.00;47859.28;5012020;28;20203;-90
2022/11/30 04:36:56;;;;;;;99.07;43.47;;;;;;;-141.97;100.00;47872.75;5007156;28;20168;-90
2022/11/30 04:39:22;;;;;;;57.60;29.30;;;;;;;-141.97;100.00;47803.56;4996281;28;20195;-90
2022/11/30 04:41:47;;;;;;;54.70;26.93;;;;;;;-141.97;100.00;47842.00;4995244;28;20554;-90
2022/11/30 04:44:12;;;;;;;43.40;20.30;;;;;;;-141.97;100.00;47943.88;4994327;28;20677;-90
2022/11/30 04:46:38;;;;;;;38.13;18.23;;;;;;;-141.97;100.00;47734.34;4994328;28;20610;-89
2022/11/30 04:49:03;;;;;;;43.37;19.60;;;;;;;-141.97;100.00;47822.78;4977806;28;20181;-90
2022/11/30 04:51:29;;;;;;;41.90;19.00;;;;;;;-141.97;100.00;47905.44;4977994;28;20179;-90
2022/11/30 04:53:54;;;;;;;43.20;19.87;;;;;;;-141.97;100.00;47817.00;4993856;28;20286;-89
2022/11/30 04:56:20;;;;;;;88.07;35.43;;;;;;;-141.97;100.00;47772.78;4995073;28;20202;-91
2022/11/30 04:58:45;;;;;;;53.03;22.80;;;;;;;-141.97;100.00;47926.56;4993648;28;20176;-91
2022/11/30 05:01:10;;;;;;;51.47;23.67;;;;;;;-141.97;100.00;47853.53;4998272;28;20168;-90
2022/11/30 05:03:36;;;;;;;43.33;20.67;;;;;;;-141.97;100.00;47853.53;4984410;28;20191;-89
2022/11/30 05:06:02;;;;;;;41.67;21.07;;;;;;;-141.97;100.00;47795.88;4979170;28;20588;-91
2022/11/30 05:08:28;;;;;;;38.93;19.17;;;;;;;-141.97;100.00;47845.84;4979960;28;20167;-89
2022/11/30 05:10:54;;;;;;;25.47;13.37;;;;;;;-141.97;100.00;47795.88;4979936;28;20650;-90
2022/11/30 05:13:20;;;;;;;35.37;17.53;;;;;;;-141.97;100.00;47694.00;4978163;28;20198;-90
2022/11/30 05:15:46;;;;;;;48.60;23.07;;;;;;;-141.97;100.00;47897.75;4980422;28;20178;-90
2022/11/30 05:18:11;;;;;;;37.87;19.77;;;;;;;-141.97;100.00;47830.47;4976976;28;20171;-90
2022/11/30 05:20:37;;;;;;;29.83;15.93;;;;;;;-141.97;100.00;47865.06;4978804;28;20362;-90
2022/11/30 05:23:02;;;;;;;25.80;14.07;;;;;;;-141.97;100.00;47782.41;4994095;28;20203;-90
2022/11/30 05:25:28;;;;;;;30.33;15.30;;;;;;;-141.97;100.00;47953.50;4975902;28;20278;-90
2022/11/30 05:27:53;;;;;;;28.20;14.00;;;;;;;-141.97;100.00;47932.34;4975894;28;20673;-90
2022/11/30 05:30:19;;;;;;;30.47;14.47;;;;;;;-141.97;100.00;47815.09;4993237;28;20254;-90
2022/11/30 05:32:44;;;;;;;26.77;14.07;;;;;;;-141.97;100.00;47893.91;4970329;28;20229;-90
2022/11/30 05:35:09;;;;;;;29.80;15.40;;;;;;;-141.97;100.00;47684.38;4975116;28;20210;-89
2022/11/30 05:37:35;;;;;;;26.33;13.80;;;;;;;-141.97;100.00;47932.34;4975672;28;20233;-90
2022/11/30 05:40:00;;;;;;;28.80;14.43;;;;;;;-141.97;100.00;47963.09;4993310;28;20171;-89
2022/11/30 05:42:27;;;;;;;26.93;12.97;;;;;;;-141.97;100.00;47907.34;4976071;28;20181;-90
2022/11/30 05:44:52;;;;;;;26.37;14.00;;;;;;;-141.97;100.00;47699.75;4993129;28;20171;-90
2022/11/30 05:47:18;;;;;;;24.57;13.43;;;;;;;-141.97;100.00;47845.84;4992657;28;20168;-92
2022/11/30 05:49:43;;;;;;;23.63;13.03;;;;;;;-141.97;100.00;47738.19;4976340;28;20182;-89
2022/11/30 05:52:09;;;;;;;24.50;12.43;;;;;;;-141.97;100.00;47903.50;4988484;28;20175;-90
2022/11/30 05:54:34;;;;;;;22.33;11.97;;;;;;;-141.97;100.00;47699.75;4993432;28;20195;-90
2022/11/30 05:57:00;;;;;;;24.17;11.27;;;;;;;-141.97;100.00;47903.50;4976841;28;20179;-91
2022/11/30 05:59:25;;;;;;;17.57;9.83;;;;;;;-141.97;100.00;47861.22;4994692;28;20587;-91
2022/11/30 06:01:51;;;;;;;15.50;8.37;;;;;;;-141.97;100.00;47692.06;4978871;28;20171;-91
2022/11/30 06:04:16;;;;;;;15.87;8.00;;;;;;;-141.97;100.00;47724.75;4976030;28;20174;-91
2022/11/30 06:06:42;;;;;;;13.73;7.87;;;;;;;-141.97;100.00;47922.72;4976155;28;20171;-91
2022/11/30 06:09:07;;;;;;;14.30;8.00;;;;;;;-141.97;100.00;47876.59;4975580;28;20551;-92
2022/11/30 06:11:33;;;;;;;13.77;8.17;;;;;;;-141.97;100.00;47938.09;4977057;28;20183;-92
2022/11/30 06:13:58;;;;;;;13.80;8.03;;;;;;;-141.97;100.00;47853.53;4995742;28;20188;-90
2022/11/30 06:16:23;;;;;;;15.90;9.87;;;;;;;-141.97;100.00;47865.06;4982691;28;20563;-89
2022/11/30 06:18:49;;;;;;;17.03;10.10;;;;;;;-141.97;100.00;47720.91;4977725;28;20181;-90
2022/11/30 06:21:14;;;;;;;15.90;9.80;;;;;;;-141.97;100.00;47782.41;4989718;28;20243;-91
2022/11/30 06:23:40;;;;;;;17.17;10.27;;;;;;;-141.97;100.00;47822.78;4972635;28;20172;-90
2022/11/30 06:26:10;;;;;;;16.37;9.90;;;;;;;-141.97;100.00;47943.88;4979799;28;20195;-90
2022/11/30 06:28:36;;;;;;;14.17;9.03;;;;;;;-141.97;100.00;47705.53;4979567;28;20167;-90
2022/11/30 06:31:05;;;;;;;15.23;9.13;;;;;;;-141.97;100.00;47876.59;4975026;28;20169;-89
2022/11/30 06:33:31;;;;;;;11.80;8.00;;;;;;;-141.97;100.00;47776.63;4978173;28;20199;-90
2022/11/30 06:35:56;;;;;;;15.37;9.10;;;;;;;-141.97;100.00;47811.25;5000629;28;20283;-90
2022/11/30 06:38:23;;;;;;;15.53;9.97;;;;;;;-141.97;100.00;47642.09;4985234;28;20171;-90
2022/11/30 06:40:48;;;;;;;9.90;6.57;;;;;;;-141.97;100.00;47838.16;4977205;28;20191;-91
2022/11/30 06:43:14;;;;;;;10.37;7.13;;;;;;;-141.97;100.00;47715.13;4998253;28;20195;-89
2022/11/30 06:45:43;;;;;;;11.53;7.17;;;;;;;-141.97;100.00;47907.34;4986005;28;20176;-89
2022/11/30 06:48:09;;;;;;;12.63;8.47;;;;;;;-141.97;100.00;47778.56;4989625;28;20160;-88
2022/11/30 06:50:34;;;;;;;11.57;7.73;;;;;;;-141.97;100.00;47928.50;4981842;28;20175;-90
2022/11/30 06:53:00;;;;;;;14.07;10.10;;;;;;;-141.97;100.00;47667.06;4984873;28;20179;-90
2022/11/30 06:55:26;;;;;;;12.70;7.97;;;;;;;-141.97;100.00;47838.16;4988337;28;20175;-90
2022/11/30 06:57:51;;;;;;;11.97;7.80;;;;;;;-141.97;100.00;47688.22;4986291;28;20183;-91
2022/11/30 07:00:18;;;;;;;14.53;7.83;;;;;;;-141.97;100.00;47888.13;4989748;28;20224;-90
2022/11/30 07:02:43;;;;;;;13.63;8.57;;;;;;;-141.97;100.00;47784.34;4987455;28;20824;-90
2022/11/30 07:05:12;;;;;;;17.57;12.23;;;;;;;-141.97;100.00;47891.97;4988489;28;20191;-89
2022/11/30 07:07:37;;;;;;;20.87;13.93;;;;;;;-141.97;100.00;47820.84;4984523;28;20688;-89
2022/11/30 07:10:03;;;;;;;23.17;15.13;;;;;;;-141.97;100.00;47726.66;4980718;28;20200;-90
2022/11/30 07:12:29;;;;;;;21.23;12.77;;;;;;;-141.97;100.00;47911.19;4982932;28;20168;-90
2022/11/30 07:14:54;;;;;;;18.20;11.23;;;;;;;-141.97;100.00;47707.44;4983982;28;20204;-90
2022/11/30 07:17:20;;;;;;;16.37;9.60;;;;;;;-141.97;100.00;47749.72;4976236;28;20219;-90
2022/11/30 07:19:46;;;;;;;15.97;10.10;;;;;;;-141.97;100.00;47859.28;4977616;28;20219;-90
2022/11/30 07:22:11;;;;;;;13.47;8.57;;;;;;;-141.97;100.00;47788.19;4978329;28;20179;-89
2022/11/30 07:27:20;;;;;;;12.77;8.77;;;;;;;-141.97;100.00;47966.94;4996567;28;20178;-89
2022/11/30 07:29:47;;;;;;;12.27;7.47;;;;;;;-141.97;100.00;47768.94;4996675;28;20167;-90
2022/11/30 07:32:13;;;;;;;12.50;7.73;;;;;;;-141.97;100.00;47940.03;4983228;28;20183;-90
2022/11/30 07:34:39;;;;;;;14.20;7.63;;;;;;;-141.97;100.00;47941.94;4999137;28;20199;-90
2022/11/30 07:37:04;;;;;;;11.50;7.70;;;;;;;-141.97;100.00;47870.81;4989526;28;20171;-90
2022/11/30 07:39:30;;;;;;;13.70;9.83;;;;;;;-141.97;100.00;47916.97;4985248;28;20179;-91
2022/11/30 07:41:55;;;;;;;10.60;7.50;;;;;;;-141.97;100.00;47907.34;4982881;28;20183;-89
2022/11/30 07:44:21;;;;;;;12.17;7.07;;;;;;;-141.97;100.00;47690.16;4995634;28;20581;-88
2022/11/30 07:46:46;;;;;;;13.90;8.37;;;;;;;-141.97;100.00;47801.63;4977490;28;20182;-87
2022/11/30 07:49:11;;;;;;;14.20;7.93;;;;;;;-141.97;100.00;47784.34;4977591;28;20186;-87
2022/11/30 07:51:37;;;;;;;14.80;9.07;;;;;;;-141.97;100.00;47818.94;4993381;28;20187;-87
2022/11/30 07:54:03;;;;;;;11.90;7.83;;;;;;;-141.97;100.00;47742.03;4969157;28;20207;-86
2022/11/30 07:56:28;;;;;;;13.67;8.83;;;;;;;-141.97;100.00;47951.56;4979026;28;20235;-87
2022/11/30 07:58:58;;;;;;;13.57;8.73;;;;;;;-141.97;100.00;47857.38;4995067;28;20167;-86
2022/11/30 08:01:26;;;;;;;12.40;8.73;;;;;;;-141.97;100.00;47861.22;4994618;28;20186;-86
2022/11/30 08:03:52;;;;;;;11.47;7.57;;;;;;;-141.97;100.00;47865.06;4994593;28;20574;-86
2022/11/30 08:06:22;;;;;;;14.70;8.10;;;;;;;-141.97;100.00;47968.88;4973221;28;20645;-86
2022/11/30 08:08:50;;;;;;;10.47;7.27;;;;;;;-141.97;100.00;47780.47;4973927;28;20191;-85
2022/11/30 08:11:20;;;;;;;10.13;6.90;;;;;;;-141.97;100.00;47853.53;4974718;28;20199;-86
2022/11/30 08:13:46;;;;;;;11.03;6.40;;;;;;;-141.97;100.00;47899.66;4987658;28;20305;-86
2022/11/30 08:16:18;;;;;;;10.47;6.60;;;;;;;-141.97;100.00;47866.97;4993516;28;20648;-86
2022/11/30 08:18:44;;;;;;;68.10;38.60;;;;;;;-141.97;100.00;47903.50;4993244;28;20277;-90
2022/11/30 08:21:12;;;;;;;14.20;8.57;;;;;;;-141.97;100.00;47866.97;4994238;28;20270;-87
2022/11/30 08:23:46;;;;;;;27.17;12.77;;;;;;;-141.97;100.00;47845.84;4975931;28;20246;-86
2022/11/30 08:26:20;;;;;;;29.53;12.43;;;;;;;-141.97;100.00;47868.91;4993817;28;20532;-88
2022/11/30 08:28:47;;;;;;;19.97;9.97;;;;;;;-141.97;100.00;47847.75;4994134;28;20175;-88
2022/11/30 08:31:22;;;;;;;16.60;9.73;;;;;;;-141.97;100.00;47807.41;4998445;28;20159;-87
2022/11/30 08:33:48;;;;;;;15.23;9.03;;;;;;;-141.97;100.00;47770.88;4993725;28;20194;-86
2022/11/30 08:36:20;;;;;;;36.60;18.83;;;;;;;-141.97;100.00;47759.34;4993579;28;20258;-88
2022/11/30 08:38:46;;;;;;;354.40;131.53;;;;;;;-141.97;100.00;47868.91;4992974;28;20191;-87
2022/11/30 08:41:15;;;;;;;468.93;167.03;;;;;;;-141.97;100.00;47918.88;4993724;28;20179;-87
2022/11/30 08:43:41;;;;;;;52.13;26.40;;;;;;;-141.97;100.00;47849.69;4993881;28;20195;-87
2022/11/30 08:46:09;;;;;;;19.93;12.27;;;;;;;-141.97;100.00;47926.56;4992702;28;20617;-87
2022/11/30 08:48:34;;;;;;;29.40;17.97;;;;;;;-141.97;100.00;47899.66;4992134;28;20229;-86
2022/11/30 08:51:02;;;;;;;18.37;10.37;;;;;;;-141.97;100.00;47845.84;4993290;28;20607;-87
2022/11/30 08:53:28;;;;;;;20.23;12.97;;;;;;;-141.97;100.00;47876.59;4975486;28;20636;-87
2022/11/30 08:55:57;;;;;;;22.10;13.87;;;;;;;-141.97;100.00;47776.63;4975448;28;20171;-85
2022/11/30 08:58:24;;;;;;;49.73;34.10;;;;;;;-141.97;100.00;47809.31;4993150;28;20221;-85
2022/11/30 09:00:49;;;;;;;18.40;11.73;;;;;;;-141.97;100.00;47853.53;4991903;28;20560;-86
2022/11/30 09:03:15;;;;;;;17.67;12.43;;;;;;;-141.97;100.00;47868.91;4977674;28;20179;-86
2022/11/30 09:05:40;;;;;;;23.40;16.03;;;;;;;-141.97;100.00;47711.28;4994266;28;20167;-85
2022/11/30 09:08:06;;;;;;;19.30;12.77;;;;;;;-141.97;100.00;47772.78;4977503;28;20206;-85
2022/11/30 09:10:31;;;;;;;17.67;10.20;;;;;;;-141.97;100.00;47972.72;4993044;28;20645;-85
2022/11/30 09:12:56;;;;;;;15.93;9.30;;;;;;;-141.97;100.00;47859.28;4993023;28;20163;-86
2022/11/30 09:15:22;;;;;;;21.97;15.30;;;;;;;-141.97;100.00;47916.97;4981100;28;20227;-86
2022/11/30 09:17:47;;;;;;;13.37;8.70;;;;;;;-141.97;100.00;47872.75;4975251;28;20182;-86
2022/11/30 09:20:13;;;;;;;22.13;14.70;;;;;;;-141.97;100.00;47724.75;4992524;28;20276;-87
2022/11/30 09:22:38;;;;;;;21.00;11.47;;;;;;;-141.97;100.00;47866.97;4992010;28;20171;-86
2022/11/30 09:25:04;;;;;;;12.40;8.20;;;;;;;-141.97;100.00;47778.56;4974940;28;20255;-86
2022/11/30 09:27:32;;;;;;;11.13;7.13;;;;;;;-141.97;100.00;47853.53;4974776;28;20181;-86
2022/11/30 09:29:58;;;;;;;34.53;15.63;;;;;;;-141.97;100.00;47795.88;4992137;28;20167;-87
2022/11/30 09:32:24;;;;;;;22.87;13.50;;;;;;;-141.97;100.00;47895.81;4992371;28;20163;-87
2022/11/30 09:34:49;;;;;;;13.97;10.17;;;;;;;-141.97;100.00;47940.03;4975012;28;20195;-87
2022/11/30 09:37:14;;;;;;;13.30;8.93;;;;;;;-141.97;100.00;47918.88;4991953;28;20198;-88
2022/11/30 09:39:40;;;;;;;24.17;16.07;;;;;;;-141.97;100.00;47888.13;4991079;28;20195;-86
2022/11/30 09:42:17;;;;;;;13.10;8.10;;;;;;;-141.97;100.00;47903.50;4992631;28;20609;-86
2022/11/30 09:44:52;;;;;;;13.93;8.93;;;;;;;-141.97;100.00;47843.91;4992349;28;20166;-86
2022/11/30 09:47:44;;;;;;;107.20;64.23;;;;;;;-141.97;100.00;47842.00;4971334;28;20175;-86
2022/11/30 09:50:17;;;;;;;14.37;9.77;;;;;;;-141.97;100.00;47876.59;4971678;28;20168;-86
2022/11/30 09:52:48;;;;;;;12.73;7.27;;;;;;;-141.97;100.00;47778.56;4971235;28;20164;-86
2022/11/30 09:55:22;;;;;;;13.43;8.80;;;;;;;-141.97;100.00;47876.59;4972725;28;20211;-86
2022/11/30 09:57:52;;;;;;;12.03;7.73;;;;;;;-141.97;100.00;47840.06;4988783;28;20534;-86
2022/11/30 10:00:20;;;;;;;15.47;8.83;;;;;;;-141.97;100.00;47901.59;4991418;28;20178;-86
2022/11/30 10:02:49;;;;;;;15.03;8.67;;;;;;;-141.97;100.00;47699.75;4975684;28;20247;-87
2022/11/30 10:05:23;;;;;;;14.37;8.40;;;;;;;-141.97;100.00;47878.53;4992421;28;20182;-87
2022/11/30 10:08:11;;;;;;;15.53;11.07;;;;;;;-141.97;100.00;47849.69;4991539;28;20210;-86
2022/11/30 10:10:55;;;;;;;13.93;9.07;;;;;;;-141.97;100.00;47868.91;4997059;28;20175;-85
2022/11/30 10:13:39;;;;;;;32.77;20.63;;;;;;;-141.97;100.00;47851.59;4996596;28;20205;-86
2022/11/30 10:16:25;;;;;;;13.00;8.10;;;;;;;-141.97;100.00;47857.38;4999910;28;20159;-86
2022/11/30 10:19:09;;;;;;;23.40;17.90;;;;;;;-141.97;100.00;47865.06;4982005;28;20179;-86
2022/11/30 10:21:50;;;;;;;13.27;8.43;;;;;;;-141.97;100.00;47884.28;4993169;28;20227;-87
2022/11/30 10:24:16;;;;;;;13.87;8.83;;;;;;;-141.97;100.00;47822.78;4975381;28;20171;-87
2022/11/30 10:26:52;;;;;;;14.13;8.97;;;;;;;-141.97;100.00;47903.50;4993238;28;20659;-86
2022/11/30 10:29:22;;;;;;;15.83;10.17;;;;;;;-141.97;100.00;47866.97;4974841;28;20265;-85
2022/11/30 10:31:54;;;;;;;13.80;8.50;;;;;;;-141.97;100.00;47895.81;4992518;28;20266;-85
2022/11/30 10:34:21;;;;;;;17.63;11.30;;;;;;;-141.97;100.00;47857.38;4983858;28;20241;-86
2022/11/30 10:37:07;;;;;;;14.63;9.57;;;;;;;-141.97;100.00;47874.69;4973814;28;20182;-86
2022/11/30 10:39:45;;;;;;;15.03;8.67;;;;;;;-141.97;100.00;47853.53;4974226;28;20229;-86
2022/11/30 10:42:31;;;;;;;14.73;9.40;;;;;;;-141.97;100.00;47884.28;4975166;28;20198;-86
2022/11/30 10:45:19;;;;;;;13.20;8.40;;;;;;;-141.97;100.00;47855.44;4991957;28;20691;-86
2022/11/30 10:47:51;;;;;;;25.03;16.93;;;;;;;-141.97;100.00;47961.19;4991723;28;20258;-86
2022/11/30 10:50:17;;;;;;;15.20;9.57;;;;;;;-141.97;100.00;47849.69;4989915;28;20172;-86
2022/11/30 10:52:52;;;;;;;16.47;10.87;;;;;;;-141.97;100.00;47836.22;4991892;28;20191;-87
2022/11/30 10:55:21;;;;;;;24.10;16.30;;;;;;;-141.97;100.00;47868.91;4991649;28;20201;-87
2022/11/30 10:57:49;;;;;;;17.80;11.30;;;;;;;-141.97;100.00;47840.06;4973569;28;20654;-87
2022/11/30 11:00:16;;;;;;;21.50;15.17;;;;;;;-141.97;100.00;47876.59;4973882;28;20210;-87
2022/11/30 11:02:46;;;;;;;15.83;10.47;;;;;;;-141.97;100.00;47857.38;4991502;28;20192;-86